sensor_id;sensor_type;location;lat;lon;timestamp;temperature;humidity
32600;DHT22;19277;51.778;7.912;2022-08-19T00:01:45;22.40;85.80
32600;DHT22;19277;51.778;7.912;2022-08-19T00:04:13;22.70;84.70
32600;DHT22;19277;51.778;7.912;2022-08-19T00:06:41;22.90;83.70
32600;DHT22;19277;51.778;7.912;2022-08-19T00:09:09;23.10;82.80
32600;DHT22;19277;51.778;7.912;2022-08-19T00:11:35;23.30;82.10
32600;DHT22;19277;51.778;7.912;2022-08-19T00:14:04;23.50;81.40
32600;DHT22;19277;51.778;7.912;2022-08-19T00:16:30;23.60;80.70
32600;DHT22;19277;51.778;7.912;2022-08-19T00:18:56;23.80;80.30
32600;DHT22;19277;51.778;7.912;2022-08-19T00:21:23;23.90;79.70
32600;DHT22;19277;51.778;7.912;2022-08-19T00:23:49;24.00;79.40
32600;DHT22;19277;51.778;7.912;2022-08-19T00:26:15;24.10;79.10
32600;DHT22;19277;51.778;7.912;2022-08-19T00:28:41;24.20;78.80
32600;DHT22;19277;51.778;7.912;2022-08-19T00:31:08;24.20;78.50
32600;DHT22;19277;51.778;7.912;2022-08-19T00:33:34;24.30;78.30
32600;DHT22;19277;51.778;7.912;2022-08-19T00:36:01;24.40;78.10
32600;DHT22;19277;51.778;7.912;2022-08-19T00:38:27;24.40;77.90
32600;DHT22;19277;51.778;7.912;2022-08-19T00:40:53;24.50;77.70
32600;DHT22;19277;51.778;7.912;2022-08-19T00:43:22;24.50;77.40
32600;DHT22;19277;51.778;7.912;2022-08-19T00:45:48;24.60;77.30
32600;DHT22;19277;51.778;7.912;2022-08-19T00:48:16;24.70;77.20
32600;DHT22;19277;51.778;7.912;2022-08-19T00:50:43;24.70;77.00
32600;DHT22;19277;51.778;7.912;2022-08-19T00:53:11;24.70;76.90
32600;DHT22;19277;51.778;7.912;2022-08-19T00:55:39;24.80;76.90
32600;DHT22;19277;51.778;7.912;2022-08-19T00:58:10;24.80;76.80
32600;DHT22;19277;51.778;7.912;2022-08-19T01:00:38;24.90;76.70
32600;DHT22;19277;51.778;7.912;2022-08-19T01:03:07;24.90;76.50
32600;DHT22;19277;51.778;7.912;2022-08-19T01:05:34;24.90;76.50
32600;DHT22;19277;51.778;7.912;2022-08-19T01:08:02;25.00;76.40
32600;DHT22;19277;51.778;7.912;2022-08-19T01:10:33;25.00;76.20
32600;DHT22;19277;51.778;7.912;2022-08-19T01:13:01;25.00;76.20
32600;DHT22;19277;51.778;7.912;2022-08-19T01:15:32;25.00;76.10
32600;DHT22;19277;51.778;7.912;2022-08-19T01:18:07;25.10;76.00
32600;DHT22;19277;51.778;7.912;2022-08-19T01:20:33;25.10;75.90
32600;DHT22;19277;51.778;7.912;2022-08-19T01:22:59;25.10;75.90
32600;DHT22;19277;51.778;7.912;2022-08-19T01:25:49;25.10;75.80
32600;DHT22;19277;51.778;7.912;2022-08-19T01:28:26;25.20;75.70
32600;DHT22;19277;51.778;7.912;2022-08-19T01:30:52;25.20;75.60
32600;DHT22;19277;51.778;7.912;2022-08-19T01:33:19;25.20;75.60
32600;DHT22;19277;51.778;7.912;2022-08-19T01:35:46;25.20;75.50
32600;DHT22;19277;51.778;7.912;2022-08-19T01:38:25;25.20;75.40
32600;DHT22;19277;51.778;7.912;2022-08-19T01:40:52;25.20;75.40
32600;DHT22;19277;51.778;7.912;2022-08-19T01:43:17;25.30;75.40
32600;DHT22;19277;51.778;7.912;2022-08-19T01:45:45;25.30;75.40
32600;DHT22;19277;51.778;7.912;2022-08-19T01:48:10;25.30;75.30
32600;DHT22;19277;51.778;7.912;2022-08-19T01:50:37;25.30;75.30
32600;DHT22;19277;51.778;7.912;2022-08-19T01:53:05;25.30;75.30
32600;DHT22;19277;51.778;7.912;2022-08-19T01:55:31;25.40;75.30
32600;DHT22;19277;51.778;7.912;2022-08-19T01:57:59;25.40;75.20
32600;DHT22;19277;51.778;7.912;2022-08-19T02:00:28;25.40;75.10
32600;DHT22;19277;51.778;7.912;2022-08-19T02:02:55;25.40;75.10
32600;DHT22;19277;51.778;7.912;2022-08-19T02:05:20;25.40;75.20
32600;DHT22;19277;51.778;7.912;2022-08-19T02:07:47;25.40;75.80
32600;DHT22;19277;51.778;7.912;2022-08-19T02:10:17;25.40;75.20
32600;DHT22;19277;51.778;7.912;2022-08-19T02:12:44;25.40;75.20
32600;DHT22;19277;51.778;7.912;2022-08-19T02:15:10;25.40;75.10
32600;DHT22;19277;51.778;7.912;2022-08-19T02:17:35;25.40;75.10
32600;DHT22;19277;51.778;7.912;2022-08-19T02:20:01;25.50;75.10
32600;DHT22;19277;51.778;7.912;2022-08-19T02:22:27;25.50;75.00
32600;DHT22;19277;51.778;7.912;2022-08-19T02:24:53;25.50;75.00
32600;DHT22;19277;51.778;7.912;2022-08-19T02:27:19;25.50;74.90
32600;DHT22;19277;51.778;7.912;2022-08-19T02:29:49;25.50;74.80
32600;DHT22;19277;51.778;7.912;2022-08-19T02:32:16;25.50;74.80
32600;DHT22;19277;51.778;7.912;2022-08-19T02:34:44;25.50;74.70
32600;DHT22;19277;51.778;7.912;2022-08-19T02:37:09;25.50;74.70
32600;DHT22;19277;51.778;7.912;2022-08-19T02:39:55;25.50;74.70
32600;DHT22;19277;51.778;7.912;2022-08-19T02:42:21;25.60;74.70
32600;DHT22;19277;51.778;7.912;2022-08-19T02:44:46;25.60;74.70
32600;DHT22;19277;51.778;7.912;2022-08-19T02:47:12;25.50;74.70
32600;DHT22;19277;51.778;7.912;2022-08-19T02:49:39;25.60;74.80
32600;DHT22;19277;51.778;7.912;2022-08-19T02:52:05;25.60;74.80
32600;DHT22;19277;51.778;7.912;2022-08-19T02:54:30;25.60;74.80
32600;DHT22;19277;51.778;7.912;2022-08-19T02:56:56;25.60;74.80
32600;DHT22;19277;51.778;7.912;2022-08-19T02:59:22;25.60;74.80
32600;DHT22;19277;51.778;7.912;2022-08-19T03:01:47;25.60;74.80
32600;DHT22;19277;51.778;7.912;2022-08-19T03:04:15;25.70;74.90
32600;DHT22;19277;51.778;7.912;2022-08-19T03:06:44;25.70;74.90
32600;DHT22;19277;51.778;7.912;2022-08-19T03:09:10;25.70;74.70
32600;DHT22;19277;51.778;7.912;2022-08-19T03:11:37;25.70;74.60
32600;DHT22;19277;51.778;7.912;2022-08-19T03:14:04;25.70;74.60
32600;DHT22;19277;51.778;7.912;2022-08-19T03:16:35;25.70;74.50
32600;DHT22;19277;51.778;7.912;2022-08-19T03:19:04;25.70;74.50
32600;DHT22;19277;51.778;7.912;2022-08-19T03:21:32;25.70;74.50
32600;DHT22;19277;51.778;7.912;2022-08-19T03:24:03;25.70;74.60
32600;DHT22;19277;51.778;7.912;2022-08-19T03:26:30;25.70;74.60
32600;DHT22;19277;51.778;7.912;2022-08-19T03:28:56;25.80;74.70
32600;DHT22;19277;51.778;7.912;2022-08-19T03:31:22;25.80;74.70
32600;DHT22;19277;51.778;7.912;2022-08-19T03:33:50;25.80;74.60
32600;DHT22;19277;51.778;7.912;2022-08-19T03:36:19;25.80;74.60
32600;DHT22;19277;51.778;7.912;2022-08-19T03:38:48;25.80;74.60
32600;DHT22;19277;51.778;7.912;2022-08-19T03:41:18;25.80;74.90
32600;DHT22;19277;51.778;7.912;2022-08-19T03:43:45;25.80;74.50
32600;DHT22;19277;51.778;7.912;2022-08-19T03:46:16;25.80;74.50
32600;DHT22;19277;51.778;7.912;2022-08-19T03:48:43;25.80;74.50
32600;DHT22;19277;51.778;7.912;2022-08-19T03:51:17;25.80;74.90
32600;DHT22;19277;51.778;7.912;2022-08-19T03:53:43;25.80;74.30
32600;DHT22;19277;51.778;7.912;2022-08-19T03:56:10;25.90;74.30
32600;DHT22;19277;51.778;7.912;2022-08-19T03:58:36;25.90;74.80
32600;DHT22;19277;51.778;7.912;2022-08-19T04:01:07;25.90;74.30
32600;DHT22;19277;51.778;7.912;2022-08-19T04:03:33;25.90;74.30
32600;DHT22;19277;51.778;7.912;2022-08-19T04:05:59;25.90;74.20
32600;DHT22;19277;51.778;7.912;2022-08-19T04:08:33;25.90;74.30
32600;DHT22;19277;51.778;7.912;2022-08-19T04:10:59;25.90;74.30
32600;DHT22;19277;51.778;7.912;2022-08-19T04:13:25;25.90;74.40
32600;DHT22;19277;51.778;7.912;2022-08-19T04:15:50;25.90;74.40
32600;DHT22;19277;51.778;7.912;2022-08-19T04:18:16;25.90;74.50
32600;DHT22;19277;51.778;7.912;2022-08-19T04:20:44;25.90;74.40
32600;DHT22;19277;51.778;7.912;2022-08-19T04:23:11;25.90;74.40
32600;DHT22;19277;51.778;7.912;2022-08-19T04:25:43;25.90;70.10
32600;DHT22;19277;51.778;7.912;2022-08-19T04:28:10;25.60;73.30
32600;DHT22;19277;51.778;7.912;2022-08-19T04:30:45;25.30;71.80
32600;DHT22;19277;51.778;7.912;2022-08-19T04:33:13;25.10;71.00
32600;DHT22;19277;51.778;7.912;2022-08-19T04:35:42;24.80;71.50
32600;DHT22;19277;51.778;7.912;2022-08-19T04:38:09;24.50;72.50
32600;DHT22;19277;51.778;7.912;2022-08-19T04:40:43;24.30;73.30
32600;DHT22;19277;51.778;7.912;2022-08-19T04:43:27;24.10;73.90
32600;DHT22;19277;51.778;7.912;2022-08-19T04:45:53;24.00;74.40
32600;DHT22;19277;51.778;7.912;2022-08-19T04:48:18;23.80;74.60
32600;DHT22;19277;51.778;7.912;2022-08-19T04:50:53;23.70;74.80
32600;DHT22;19277;51.778;7.912;2022-08-19T04:53:27;23.60;74.80
32600;DHT22;19277;51.778;7.912;2022-08-19T04:55:55;23.40;75.70
32600;DHT22;19277;51.778;7.912;2022-08-19T04:58:22;23.10;76.50
32600;DHT22;19277;51.778;7.912;2022-08-19T05:00:48;22.90;77.20
32600;DHT22;19277;51.778;7.912;2022-08-19T05:03:13;22.60;77.90
32600;DHT22;19277;51.778;7.912;2022-08-19T05:05:46;22.40;78.70
32600;DHT22;19277;51.778;7.912;2022-08-19T05:08:16;22.20;79.20
32600;DHT22;19277;51.778;7.912;2022-08-19T05:10:47;22.10;79.90
32600;DHT22;19277;51.778;7.912;2022-08-19T05:13:14;21.90;81.10
32600;DHT22;19277;51.778;7.912;2022-08-19T05:15:41;21.80;81.90
32600;DHT22;19277;51.778;7.912;2022-08-19T05:18:07;21.70;82.30
32600;DHT22;19277;51.778;7.912;2022-08-19T05:20:51;21.70;82.80
32600;DHT22;19277;51.778;7.912;2022-08-19T05:23:52;21.60;83.20
32600;DHT22;19277;51.778;7.912;2022-08-19T05:26:17;21.60;82.70
32600;DHT22;19277;51.778;7.912;2022-08-19T05:28:43;21.50;82.50
32600;DHT22;19277;51.778;7.912;2022-08-19T05:31:09;21.50;82.90
32600;DHT22;19277;51.778;7.912;2022-08-19T05:33:34;21.40;83.70
32600;DHT22;19277;51.778;7.912;2022-08-19T05:36:01;21.20;84.30
32600;DHT22;19277;51.778;7.912;2022-08-19T05:38:27;21.10;85.30
32600;DHT22;19277;51.778;7.912;2022-08-19T05:40:53;21.10;85.50
32600;DHT22;19277;51.778;7.912;2022-08-19T05:43:19;21.00;86.20
32600;DHT22;19277;51.778;7.912;2022-08-19T05:45:45;21.00;86.50
32600;DHT22;19277;51.778;7.912;2022-08-19T05:48:11;21.00;86.70
32600;DHT22;19277;51.778;7.912;2022-08-19T05:50:39;21.10;87.60
32600;DHT22;19277;51.778;7.912;2022-08-19T05:53:05;21.10;88.10
32600;DHT22;19277;51.778;7.912;2022-08-19T05:55:31;21.00;88.80
32600;DHT22;19277;51.778;7.912;2022-08-19T05:57:57;20.70;90.10
32600;DHT22;19277;51.778;7.912;2022-08-19T06:00:23;20.50;90.80
32600;DHT22;19277;51.778;7.912;2022-08-19T06:02:49;20.40;91.70
32600;DHT22;19277;51.778;7.912;2022-08-19T06:05:14;20.30;92.20
32600;DHT22;19277;51.778;7.912;2022-08-19T06:07:40;20.30;92.50
32600;DHT22;19277;51.778;7.912;2022-08-19T06:10:08;20.40;92.90
32600;DHT22;19277;51.778;7.912;2022-08-19T06:12:35;20.40;92.80
32600;DHT22;19277;51.778;7.912;2022-08-19T06:15:11;20.50;93.30
32600;DHT22;19277;51.778;7.912;2022-08-19T06:17:38;20.60;92.70
32600;DHT22;19277;51.778;7.912;2022-08-19T06:20:05;20.70;92.70
32600;DHT22;19277;51.778;7.912;2022-08-19T06:22:31;20.80;92.60
32600;DHT22;19277;51.778;7.912;2022-08-19T06:24:57;20.90;92.60
32600;DHT22;19277;51.778;7.912;2022-08-19T06:27:23;21.00;92.70
32600;DHT22;19277;51.778;7.912;2022-08-19T06:29:49;21.10;92.80
32600;DHT22;19277;51.778;7.912;2022-08-19T06:32:16;21.20;92.70
32600;DHT22;19277;51.778;7.912;2022-08-19T06:34:41;21.30;92.50
32600;DHT22;19277;51.778;7.912;2022-08-19T06:37:08;21.40;92.40
32600;DHT22;19277;51.778;7.912;2022-08-19T06:39:37;21.60;92.30
32600;DHT22;19277;51.778;7.912;2022-08-19T06:42:05;21.70;92.20
32600;DHT22;19277;51.778;7.912;2022-08-19T06:44:39;21.80;92.20
32600;DHT22;19277;51.778;7.912;2022-08-19T06:47:08;21.90;91.90
32600;DHT22;19277;51.778;7.912;2022-08-19T06:49:34;22.00;91.90
32600;DHT22;19277;51.778;7.912;2022-08-19T06:52:00;22.10;91.80
32600;DHT22;19277;51.778;7.912;2022-08-19T06:54:27;22.20;91.50
32600;DHT22;19277;51.778;7.912;2022-08-19T06:56:55;22.30;91.70
32600;DHT22;19277;51.778;7.912;2022-08-19T06:59:23;22.40;91.30
32600;DHT22;19277;51.778;7.912;2022-08-19T07:01:52;22.50;91.50
32600;DHT22;19277;51.778;7.912;2022-08-19T07:04:22;22.60;91.40
32600;DHT22;19277;51.778;7.912;2022-08-19T07:06:49;22.70;91.00
32600;DHT22;19277;51.778;7.912;2022-08-19T07:09:17;22.80;91.00
32600;DHT22;19277;51.778;7.912;2022-08-19T07:11:48;22.90;90.90
32600;DHT22;19277;51.778;7.912;2022-08-19T07:14:15;22.90;90.70
32600;DHT22;19277;51.778;7.912;2022-08-19T07:16:43;23.00;90.60
32600;DHT22;19277;51.778;7.912;2022-08-19T07:19:11;23.10;90.50
32600;DHT22;19277;51.778;7.912;2022-08-19T07:21:37;23.10;90.40
32600;DHT22;19277;51.778;7.912;2022-08-19T07:24:03;23.20;90.30
32600;DHT22;19277;51.778;7.912;2022-08-19T07:26:32;23.20;90.20
32600;DHT22;19277;51.778;7.912;2022-08-19T07:28:58;23.30;90.00
32600;DHT22;19277;51.778;7.912;2022-08-19T07:31:27;23.40;90.10
32600;DHT22;19277;51.778;7.912;2022-08-19T07:33:54;23.40;89.40
32600;DHT22;19277;51.778;7.912;2022-08-19T07:36:23;23.50;89.60
32600;DHT22;19277;51.778;7.912;2022-08-19T07:38:51;23.60;88.70
32600;DHT22;19277;51.778;7.912;2022-08-19T07:41:21;23.60;88.60
32600;DHT22;19277;51.778;7.912;2022-08-19T07:43:47;23.70;88.30
32600;DHT22;19277;51.778;7.912;2022-08-19T07:46:13;23.60;88.40
32600;DHT22;19277;51.778;7.912;2022-08-19T07:48:41;23.60;88.10
32600;DHT22;19277;51.778;7.912;2022-08-19T07:51:09;23.60;88.00
32600;DHT22;19277;51.778;7.912;2022-08-19T07:53:37;23.60;88.10
32600;DHT22;19277;51.778;7.912;2022-08-19T07:56:04;23.50;88.30
32600;DHT22;19277;51.778;7.912;2022-08-19T07:58:33;23.50;88.70
32600;DHT22;19277;51.778;7.912;2022-08-19T08:00:59;23.50;89.10
32600;DHT22;19277;51.778;7.912;2022-08-19T08:03:27;23.50;89.00
32600;DHT22;19277;51.778;7.912;2022-08-19T08:06:13;23.40;89.60
32600;DHT22;19277;51.778;7.912;2022-08-19T08:08:58;23.50;89.80
32600;DHT22;19277;51.778;7.912;2022-08-19T08:11:40;23.50;89.70
32600;DHT22;19277;51.778;7.912;2022-08-19T08:14:07;23.60;88.80
32600;DHT22;19277;51.778;7.912;2022-08-19T08:16:35;23.60;88.40
32600;DHT22;19277;51.778;7.912;2022-08-19T08:19:07;23.70;87.80
32600;DHT22;19277;51.778;7.912;2022-08-19T08:21:34;23.80;87.60
32600;DHT22;19277;51.778;7.912;2022-08-19T08:24:00;23.80;87.40
32600;DHT22;19277;51.778;7.912;2022-08-19T08:26:25;23.80;87.40
32600;DHT22;19277;51.778;7.912;2022-08-19T08:28:54;23.90;87.40
32600;DHT22;19277;51.778;7.912;2022-08-19T08:31:20;23.90;86.80
32600;DHT22;19277;51.778;7.912;2022-08-19T08:33:46;24.00;86.60
32600;DHT22;19277;51.778;7.912;2022-08-19T08:36:12;24.10;86.40
32600;DHT22;19277;51.778;7.912;2022-08-19T08:38:42;24.10;86.10
32600;DHT22;19277;51.778;7.912;2022-08-19T08:41:49;24.20;85.70
32600;DHT22;19277;51.778;7.912;2022-08-19T08:44:28;24.30;85.40
32600;DHT22;19277;51.778;7.912;2022-08-19T08:47:02;24.30;85.10
32600;DHT22;19277;51.778;7.912;2022-08-19T08:49:41;24.40;85.00
32600;DHT22;19277;51.778;7.912;2022-08-19T08:52:18;24.50;84.60
32600;DHT22;19277;51.778;7.912;2022-08-19T08:54:47;24.50;84.20
32600;DHT22;19277;51.778;7.912;2022-08-19T08:57:17;24.60;84.20
32600;DHT22;19277;51.778;7.912;2022-08-19T08:59:47;24.60;83.90
32600;DHT22;19277;51.778;7.912;2022-08-19T09:02:16;24.70;83.40
32600;DHT22;19277;51.778;7.912;2022-08-19T09:04:42;24.70;83.30
32600;DHT22;19277;51.778;7.912;2022-08-19T09:09:50;24.80;82.60
32600;DHT22;19277;51.778;7.912;2022-08-19T09:12:39;24.90;81.70
32600;DHT22;19277;51.778;7.912;2022-08-19T09:15:13;24.90;81.90
32600;DHT22;19277;51.778;7.912;2022-08-19T09:17:39;24.90;81.30
32600;DHT22;19277;51.778;7.912;2022-08-19T09:20:14;25.00;81.50
32600;DHT22;19277;51.778;7.912;2022-08-19T09:22:42;25.00;80.40
32600;DHT22;19277;51.778;7.912;2022-08-19T09:25:15;25.00;80.80
32600;DHT22;19277;51.778;7.912;2022-08-19T09:27:43;25.00;80.40
32600;DHT22;19277;51.778;7.912;2022-08-19T09:30:16;25.10;80.00
32600;DHT22;19277;51.778;7.912;2022-08-19T09:32:43;25.10;80.00
32600;DHT22;19277;51.778;7.912;2022-08-19T09:35:10;25.10;79.30
32600;DHT22;19277;51.778;7.912;2022-08-19T09:37:35;25.10;79.00
32600;DHT22;19277;51.778;7.912;2022-08-19T09:40:02;25.10;79.90
32600;DHT22;19277;51.778;7.912;2022-08-19T09:42:28;25.10;80.10
32600;DHT22;19277;51.778;7.912;2022-08-19T09:44:53;25.20;80.30
32600;DHT22;19277;51.778;7.912;2022-08-19T09:47:19;25.20;80.30
32600;DHT22;19277;51.778;7.912;2022-08-19T09:49:44;25.30;80.40
32600;DHT22;19277;51.778;7.912;2022-08-19T09:52:11;25.30;80.30
32600;DHT22;19277;51.778;7.912;2022-08-19T09:54:38;25.40;80.60
32600;DHT22;19277;51.778;7.912;2022-08-19T09:57:04;25.40;80.50
32600;DHT22;19277;51.778;7.912;2022-08-19T09:59:30;25.40;80.40
32600;DHT22;19277;51.778;7.912;2022-08-19T10:01:56;25.50;80.20
32600;DHT22;19277;51.778;7.912;2022-08-19T10:04:22;25.50;80.00
32600;DHT22;19277;51.778;7.912;2022-08-19T10:06:49;25.60;79.90
32600;DHT22;19277;51.778;7.912;2022-08-19T10:09:17;25.60;79.80
32600;DHT22;19277;51.778;7.912;2022-08-19T10:11:44;25.60;79.50
32600;DHT22;19277;51.778;7.912;2022-08-19T10:14:14;25.70;79.40
32600;DHT22;19277;51.778;7.912;2022-08-19T10:16:41;25.70;79.20
32600;DHT22;19277;51.778;7.912;2022-08-19T10:19:08;25.70;79.10
32600;DHT22;19277;51.778;7.912;2022-08-19T10:21:35;25.70;78.90
32600;DHT22;19277;51.778;7.912;2022-08-19T10:24:03;25.70;78.80
32600;DHT22;19277;51.778;7.912;2022-08-19T10:26:35;25.70;78.60
32600;DHT22;19277;51.778;7.912;2022-08-19T10:29:03;25.70;78.50
32600;DHT22;19277;51.778;7.912;2022-08-19T10:31:31;25.80;78.40
32600;DHT22;19277;51.778;7.912;2022-08-19T10:33:58;25.80;78.30
32600;DHT22;19277;51.778;7.912;2022-08-19T10:36:29;25.80;78.20
32600;DHT22;19277;51.778;7.912;2022-08-19T10:38:58;25.80;78.10
32600;DHT22;19277;51.778;7.912;2022-08-19T10:41:30;25.80;78.00
32600;DHT22;19277;51.778;7.912;2022-08-19T10:44:01;25.80;77.90
32600;DHT22;19277;51.778;7.912;2022-08-19T10:46:28;25.90;77.80
32600;DHT22;19277;51.778;7.912;2022-08-19T10:48:56;25.90;77.80
32600;DHT22;19277;51.778;7.912;2022-08-19T10:51:22;25.90;77.70
32600;DHT22;19277;51.778;7.912;2022-08-19T10:54:06;25.90;77.50
32600;DHT22;19277;51.778;7.912;2022-08-19T10:56:33;25.90;77.50
32600;DHT22;19277;51.778;7.912;2022-08-19T10:59:28;25.90;77.40
32600;DHT22;19277;51.778;7.912;2022-08-19T11:01:59;25.90;77.30
32600;DHT22;19277;51.778;7.912;2022-08-19T11:04:25;25.90;77.20
32600;DHT22;19277;51.778;7.912;2022-08-19T11:06:51;25.90;77.10
32600;DHT22;19277;51.778;7.912;2022-08-19T11:09:20;26.00;77.10
32600;DHT22;19277;51.778;7.912;2022-08-19T11:11:45;26.00;77.00
32600;DHT22;19277;51.778;7.912;2022-08-19T11:14:14;26.00;76.90
32600;DHT22;19277;51.778;7.912;2022-08-19T11:16:41;26.00;76.80
32600;DHT22;19277;51.778;7.912;2022-08-19T11:19:09;26.00;76.70
32600;DHT22;19277;51.778;7.912;2022-08-19T11:21:38;26.00;76.70
32600;DHT22;19277;51.778;7.912;2022-08-19T11:24:07;26.00;76.60
32600;DHT22;19277;51.778;7.912;2022-08-19T11:26:34;26.00;76.50
32600;DHT22;19277;51.778;7.912;2022-08-19T11:29:00;26.00;76.40
32600;DHT22;19277;51.778;7.912;2022-08-19T11:31:29;26.00;76.30
32600;DHT22;19277;51.778;7.912;2022-08-19T11:34:01;26.00;76.30
32600;DHT22;19277;51.778;7.912;2022-08-19T11:36:29;26.10;76.80
32600;DHT22;19277;51.778;7.912;2022-08-19T11:38:55;26.00;76.20
32600;DHT22;19277;51.778;7.912;2022-08-19T11:41:22;26.20;77.30
32600;DHT22;19277;51.778;7.912;2022-08-19T11:43:49;26.50;74.70
32600;DHT22;19277;51.778;7.912;2022-08-19T11:46:16;26.80;73.30
32600;DHT22;19277;51.778;7.912;2022-08-19T11:48:43;27.10;72.50
32600;DHT22;19277;51.778;7.912;2022-08-19T11:51:12;27.30;71.90
32600;DHT22;19277;51.778;7.912;2022-08-19T11:53:38;27.50;71.10
32600;DHT22;19277;51.778;7.912;2022-08-19T11:56:06;27.70;70.00
32600;DHT22;19277;51.778;7.912;2022-08-19T11:58:32;27.80;69.20
32600;DHT22;19277;51.778;7.912;2022-08-19T12:00:58;27.90;69.10
32600;DHT22;19277;51.778;7.912;2022-08-19T12:03:24;27.90;66.40
32600;DHT22;19277;51.778;7.912;2022-08-19T12:05:50;27.70;66.00
32600;DHT22;19277;51.778;7.912;2022-08-19T12:08:16;27.50;65.50
32600;DHT22;19277;51.778;7.912;2022-08-19T12:10:42;27.30;66.40
32600;DHT22;19277;51.778;7.912;2022-08-19T12:13:10;27.10;67.50
32600;DHT22;19277;51.778;7.912;2022-08-19T12:15:39;27.00;68.40
32600;DHT22;19277;51.778;7.912;2022-08-19T12:18:08;26.90;68.70
32600;DHT22;19277;51.778;7.912;2022-08-19T12:20:36;26.90;68.50
32600;DHT22;19277;51.778;7.912;2022-08-19T12:23:03;26.80;67.70
32600;DHT22;19277;51.778;7.912;2022-08-19T12:25:29;26.80;69.10
32600;DHT22;19277;51.778;7.912;2022-08-19T12:27:56;26.70;68.90
32600;DHT22;19277;51.778;7.912;2022-08-19T12:30:21;26.70;68.00
32600;DHT22;19277;51.778;7.912;2022-08-19T12:32:47;26.70;69.00
32600;DHT22;19277;51.778;7.912;2022-08-19T12:35:13;26.70;67.20
32600;DHT22;19277;51.778;7.912;2022-08-19T12:37:39;26.70;66.90
32600;DHT22;19277;51.778;7.912;2022-08-19T12:40:10;26.60;67.70
32600;DHT22;19277;51.778;7.912;2022-08-19T12:42:38;26.70;67.70
32600;DHT22;19277;51.778;7.912;2022-08-19T12:45:07;26.70;68.60
32600;DHT22;19277;51.778;7.912;2022-08-19T12:47:32;26.70;67.30
32600;DHT22;19277;51.778;7.912;2022-08-19T12:49:58;26.70;67.50
32600;DHT22;19277;51.778;7.912;2022-08-19T12:52:26;26.70;68.30
32600;DHT22;19277;51.778;7.912;2022-08-19T12:54:54;26.70;67.90
32600;DHT22;19277;51.778;7.912;2022-08-19T12:57:20;26.70;67.60
32600;DHT22;19277;51.778;7.912;2022-08-19T12:59:46;26.70;67.20
32600;DHT22;19277;51.778;7.912;2022-08-19T13:02:12;26.70;67.40
32600;DHT22;19277;51.778;7.912;2022-08-19T13:04:37;26.70;67.40
32600;DHT22;19277;51.778;7.912;2022-08-19T13:07:06;26.70;67.50
32600;DHT22;19277;51.778;7.912;2022-08-19T13:09:33;26.70;67.60
32600;DHT22;19277;51.778;7.912;2022-08-19T13:11:59;26.70;68.60
32600;DHT22;19277;51.778;7.912;2022-08-19T13:14:27;26.70;67.90
32600;DHT22;19277;51.778;7.912;2022-08-19T13:16:54;26.70;67.30
32600;DHT22;19277;51.778;7.912;2022-08-19T13:19:19;26.80;67.70
32600;DHT22;19277;51.778;7.912;2022-08-19T13:21:50;26.80;67.80
32600;DHT22;19277;51.778;7.912;2022-08-19T13:24:15;26.80;68.50
32600;DHT22;19277;51.778;7.912;2022-08-19T13:26:41;26.80;68.80
32600;DHT22;19277;51.778;7.912;2022-08-19T13:29:06;26.80;69.00
32600;DHT22;19277;51.778;7.912;2022-08-19T13:31:50;26.80;68.30
32600;DHT22;19277;51.778;7.912;2022-08-19T13:34:35;26.90;68.40
32600;DHT22;19277;51.778;7.912;2022-08-19T13:37:03;26.90;68.70
32600;DHT22;19277;51.778;7.912;2022-08-19T13:39:30;26.90;68.40
32600;DHT22;19277;51.778;7.912;2022-08-19T13:41:57;26.90;68.70
32600;DHT22;19277;51.778;7.912;2022-08-19T13:44:26;26.90;68.60
32600;DHT22;19277;51.778;7.912;2022-08-19T13:46:59;26.90;67.50
32600;DHT22;19277;51.778;7.912;2022-08-19T13:49:28;26.90;67.90
32600;DHT22;19277;51.778;7.912;2022-08-19T13:51:55;26.90;67.10
32600;DHT22;19277;51.778;7.912;2022-08-19T13:54:21;26.90;67.60
32600;DHT22;19277;51.778;7.912;2022-08-19T13:56:47;26.90;67.70
32600;DHT22;19277;51.778;7.912;2022-08-19T13:59:12;26.90;67.10
32600;DHT22;19277;51.778;7.912;2022-08-19T14:01:39;26.90;67.10
32600;DHT22;19277;51.778;7.912;2022-08-19T14:04:05;27.00;66.20
32600;DHT22;19277;51.778;7.912;2022-08-19T14:06:31;27.00;64.20
32600;DHT22;19277;51.778;7.912;2022-08-19T14:08:57;27.00;65.90
32600;DHT22;19277;51.778;7.912;2022-08-19T14:11:22;27.00;65.00
32600;DHT22;19277;51.778;7.912;2022-08-19T14:13:48;27.00;65.20
32600;DHT22;19277;51.778;7.912;2022-08-19T14:16:14;27.00;65.50
32600;DHT22;19277;51.778;7.912;2022-08-19T14:18:40;27.00;65.50
32600;DHT22;19277;51.778;7.912;2022-08-19T14:21:07;27.00;64.70
32600;DHT22;19277;51.778;7.912;2022-08-19T14:23:33;27.00;63.30
32600;DHT22;19277;51.778;7.912;2022-08-19T14:26:06;27.00;64.00
32600;DHT22;19277;51.778;7.912;2022-08-19T14:28:31;27.00;64.70
32600;DHT22;19277;51.778;7.912;2022-08-19T14:30:57;27.00;64.70
32600;DHT22;19277;51.778;7.912;2022-08-19T14:33:23;27.00;65.10
32600;DHT22;19277;51.778;7.912;2022-08-19T14:35:48;27.00;65.40
32600;DHT22;19277;51.778;7.912;2022-08-19T14:38:18;27.00;65.10
32600;DHT22;19277;51.778;7.912;2022-08-19T14:40:44;27.00;65.50
32600;DHT22;19277;51.778;7.912;2022-08-19T14:43:11;27.00;65.60
32600;DHT22;19277;51.778;7.912;2022-08-19T14:45:38;27.00;65.70
32600;DHT22;19277;51.778;7.912;2022-08-19T14:48:05;27.00;65.70
32600;DHT22;19277;51.778;7.912;2022-08-19T14:50:32;27.00;65.60
32600;DHT22;19277;51.778;7.912;2022-08-19T14:53:01;27.00;65.70
32600;DHT22;19277;51.778;7.912;2022-08-19T14:55:27;27.00;65.60
32600;DHT22;19277;51.778;7.912;2022-08-19T14:57:53;27.00;63.70
32600;DHT22;19277;51.778;7.912;2022-08-19T15:00:19;27.10;65.50
32600;DHT22;19277;51.778;7.912;2022-08-19T15:02:44;27.10;65.50
32600;DHT22;19277;51.778;7.912;2022-08-19T15:05:10;27.10;65.40
32600;DHT22;19277;51.778;7.912;2022-08-19T15:07:37;27.10;64.70
32600;DHT22;19277;51.778;7.912;2022-08-19T15:10:04;27.10;64.70
32600;DHT22;19277;51.778;7.912;2022-08-19T15:12:30;27.10;64.20
32600;DHT22;19277;51.778;7.912;2022-08-19T15:14:56;27.10;64.70
32600;DHT22;19277;51.778;7.912;2022-08-19T15:17:21;27.20;64.30
32600;DHT22;19277;51.778;7.912;2022-08-19T15:19:47;27.10;64.30
32600;DHT22;19277;51.778;7.912;2022-08-19T15:22:13;27.20;63.60
32600;DHT22;19277;51.778;7.912;2022-08-19T15:24:38;27.20;63.10
32600;DHT22;19277;51.778;7.912;2022-08-19T15:27:04;27.20;63.40
32600;DHT22;19277;51.778;7.912;2022-08-19T15:29:31;27.20;63.10
32600;DHT22;19277;51.778;7.912;2022-08-19T15:31:57;27.20;63.80
32600;DHT22;19277;51.778;7.912;2022-08-19T15:34:24;27.20;62.80
32600;DHT22;19277;51.778;7.912;2022-08-19T15:36:51;27.20;62.70
32600;DHT22;19277;51.778;7.912;2022-08-19T15:39:17;27.20;62.20